Time;durP1;ratioP1;P1;durP2;ratioP2;P2;SDS_P1;SDS_P2;PMS_P1;PMS_P2;Temp;Humidity;BMP_temperature;BMP_pressure;BME280_temperature;BME280_humidity;BME280_pressure;Samples;Min_cycle;Max_cycle;Signal;HPM_P1;HPM_P2
2021/07/23 00:00:04;;;;;;;19.13;11.33;;;;;;;19.83;55.04;98544.61;129490;1096;114331;-82
2021/07/23 00:02:30;;;;;;;19.23;11.35;;;;;;;19.81;55.13;98538.73;129482;1096;114508;-82
2021/07/23 00:04:56;;;;;;;21.80;12.15;;;;;;;19.81;55.20;98535.22;129857;1096;22631;-82
2021/07/23 00:07:22;;;;;;;21.33;12.18;;;;;;;19.80;55.38;98539.08;129470;1096;113811;-82
2021/07/23 00:09:48;;;;;;;20.73;11.50;;;;;;;19.78;55.25;98541.41;129474;1095;114247;-82
2021/07/23 00:12:14;;;;;;;21.08;12.35;;;;;;;19.77;55.34;98531.64;129471;1096;114315;-82
2021/07/23 00:14:40;;;;;;;20.35;11.98;;;;;;;19.76;55.62;98530.83;129422;1095;114508;-82
2021/07/23 00:17:06;;;;;;;20.98;11.13;;;;;;;19.74;55.56;98530.42;129461;1095;114366;-82
2021/07/23 00:19:32;;;;;;;19.18;11.40;;;;;;;19.72;55.42;98524.52;129852;1096;22541;-82
2021/07/23 00:21:58;;;;;;;23.20;12.83;;;;;;;19.71;55.63;98531.14;129483;1096;114533;-81
2021/07/23 00:24:25;;;;;;;20.30;11.85;;;;;;;19.69;55.52;98532.66;129494;1096;114302;-82
2021/07/23 00:26:54;;;;;;;19.70;11.43;;;;;;;19.67;55.46;98535.77;129434;1096;114442;-82
2021/07/23 00:29:21;;;;;;;18.53;11.10;;;;;;;19.66;55.45;98539.66;129454;1096;114557;-82
2021/07/23 00:31:47;;;;;;;22.83;12.50;;;;;;;19.64;55.75;98541.95;129574;1096;22975;-82
2021/07/23 00:34:13;;;;;;;21.45;12.23;;;;;;;19.61;55.81;98537.20;129744;1096;114019;-83
2021/07/23 00:36:39;;;;;;;22.15;11.40;;;;;;;19.58;55.85;98532.47;129444;1095;114430;-83
2021/07/23 00:39:05;;;;;;;18.15;11.30;;;;;;;19.56;56.19;98534.76;129412;1096;114218;-83
2021/07/23 00:41:32;;;;;;;20.08;10.93;;;;;;;19.51;55.96;98546.00;129436;1097;114634;-83
2021/07/23 00:43:58;;;;;;;20.73;11.28;;;;;;;19.48;56.29;98535.80;129522;1096;22575;-83
2021/07/23 00:46:32;;;;;;;20.60;12.40;;;;;;;19.43;56.47;98539.63;129522;1096;22567;-83
2021/07/23 00:48:59;;;;;;;16.48;10.63;;;;;;;19.38;56.71;98537.98;129422;1096;114107;-83
2021/07/23 00:51:26;;;;;;;21.45;11.45;;;;;;;19.32;56.98;98536.70;129401;1097;114269;-83
2021/07/23 00:53:53;;;;;;;18.93;10.98;;;;;;;19.26;57.20;98538.16;129416;1096;114281;-83
2021/07/23 00:56:19;;;;;;;19.13;10.23;;;;;;;19.23;57.19;98541.61;129509;1096;114605;-82
2021/07/23 00:58:46;;;;;;;17.30;8.95;;;;;;;19.23;57.49;98543.56;129527;1095;23240;-82
2021/07/23 01:01:12;;;;;;;18.20;9.10;;;;;;;19.22;57.79;98536.53;129426;1096;113858;-82
2021/07/23 01:03:38;;;;;;;17.75;10.05;;;;;;;19.22;58.22;98537.31;129443;1097;114511;-82
2021/07/23 01:06:04;;;;;;;18.25;10.73;;;;;;;19.21;58.42;98532.20;129411;1097;114636;-82
2021/07/23 01:08:31;;;;;;;18.20;11.05;;;;;;;19.21;58.31;98532.20;129407;1096;114458;-82
2021/07/23 01:10:57;;;;;;;26.33;11.50;;;;;;;19.20;58.32;98530.63;129547;1095;22548;-82
2021/07/23 01:13:22;;;;;;;23.85;11.10;;;;;;;19.18;58.19;98535.64;129487;1096;114071;-82
2021/07/23 01:15:48;;;;;;;20.50;11.25;;;;;;;19.15;58.14;98530.94;129451;1096;113275;-82
2021/07/23 01:18:14;;;;;;;23.08;12.23;;;;;;;19.13;58.09;98523.09;129490;1096;114269;-81
2021/07/23 01:20:43;;;;;;;19.43;11.33;;;;;;;19.11;57.88;98523.46;129421;1097;114530;-81
2021/07/23 01:23:12;;;;;;;22.83;11.13;;;;;;;19.09;57.86;98528.48;129511;1095;113296;-81
2021/07/23 01:25:39;;;;;;;18.68;10.80;;;;;;;19.06;57.58;98521.03;129551;1096;23312;-81
2021/07/23 01:28:06;;;;;;;18.38;11.00;;;;;;;19.03;58.13;98526.42;129498;1095;114290;-81
2021/07/23 01:30:35;;;;;;;16.18;10.18;;;;;;;18.98;58.16;98519.33;129460;1096;114292;-81
2021/07/23 01:33:01;;;;;;;20.03;11.45;;;;;;;18.93;58.41;98525.06;129447;1097;114473;-81
2021/07/23 01:35:27;;;;;;;17.48;10.93;;;;;;;18.86;57.95;98531.19;129450;1096;114755;-81
2021/07/23 01:37:57;;;;;;;19.28;11.03;;;;;;;18.81;58.31;98519.76;129530;1097;23346;-82
2021/07/23 01:40:23;;;;;;;22.53;11.43;;;;;;;18.75;58.24;98527.45;129461;1096;114125;-82
2021/07/23 01:42:49;;;;;;;19.48;10.88;;;;;;;18.73;58.27;98527.02;129454;1096;113378;-82
2021/07/23 01:45:17;;;;;;;16.30;10.33;;;;;;;18.68;58.79;98524.55;129441;1095;114556;-82
2021/07/23 01:47:43;;;;;;;21.55;10.48;;;;;;;18.64;58.86;98527.20;129460;1095;116041;-82
2021/07/23 01:50:10;;;;;;;20.18;10.33;;;;;;;18.59;58.30;98524.77;129464;1095;114522;-82
2021/07/23 01:52:36;;;;;;;22.85;11.88;;;;;;;18.57;58.35;98520.81;129553;1096;22506;-81
2021/07/23 01:55:02;;;;;;;18.35;10.60;;;;;;;18.55;58.76;98518.45;129405;1096;115932;-82
2021/07/23 01:57:28;;;;;;;20.58;10.58;;;;;;;18.52;58.75;98510.98;129429;1096;114721;-82
2021/07/23 01:59:55;;;;;;;17.30;10.80;;;;;;;18.49;58.61;98517.14;129441;1096;114417;-82
2021/07/23 02:02:21;;;;;;;20.80;10.03;;;;;;;18.47;58.22;98516.73;129437;1095;114456;-82
2021/07/23 02:04:47;;;;;;;18.68;10.50;;;;;;;18.47;58.46;98516.73;129538;1096;23126;-82
2021/07/23 02:07:13;;;;;;;19.15;11.75;;;;;;;18.46;58.54;98515.13;129457;1096;114136;-82
2021/07/23 02:09:39;;;;;;;19.73;10.55;;;;;;;18.45;58.28;98520.95;129420;1095;114481;-82
2021/07/23 02:12:05;;;;;;;22.60;10.60;;;;;;;18.45;57.77;98519.02;129458;1096;114581;-82
2021/07/23 02:14:31;;;;;;;19.30;10.20;;;;;;;18.45;58.02;98507.32;129501;1096;115067;-82
2021/07/23 02:16:57;;;;;;;16.78;9.83;;;;;;;18.45;57.90;98501.86;129605;1096;22543;-82
2021/07/23 02:19:23;;;;;;;19.60;10.38;;;;;;;18.43;57.38;98523.23;129424;1096;113577;-81
2021/07/23 02:21:49;;;;;;;20.52;10.88;;;;;;;18.44;57.55;98503.02;129458;1096;114172;-81
2021/07/23 02:24:15;;;;;;;21.25;10.68;;;;;;;18.44;57.86;98505.75;129448;1096;114250;-81
2021/07/23 02:26:41;;;;;;;17.30;10.85;;;;;;;18.43;57.78;98502.23;129423;1096;114412;-81
2021/07/23 02:29:07;;;;;;;19.13;10.45;;;;;;;18.43;57.63;98509.59;129449;1096;114499;-81
2021/07/23 02:31:33;;;;;;;20.25;11.05;;;;;;;18.42;57.19;98506.09;129580;1096;22549;-82
2021/07/23 02:33:59;;;;;;;17.38;9.98;;;;;;;18.42;57.40;98514.27;129495;1096;114126;-81
2021/07/23 02:36:25;;;;;;;17.90;10.28;;;;;;;18.40;57.60;98505.67;129452;1096;115050;-81
2021/07/23 02:38:51;;;;;;;17.43;10.48;;;;;;;18.39;57.55;98506.80;129421;1096;114624;-81
2021/07/23 02:41:17;;;;;;;19.33;10.68;;;;;;;18.38;57.69;98503.28;129427;1096;117571;-81
2021/07/23 02:43:47;;;;;;;21.88;10.03;;;;;;;18.37;57.59;98503.66;129512;1097;23318;-81
2021/07/23 02:46:13;;;;;;;16.88;9.75;;;;;;;18.37;57.30;98500.92;129484;1096;114364;-81
2021/07/23 02:48:39;;;;;;;18.60;9.60;;;;;;;18.37;57.47;98498.98;129493;1094;114086;-81
2021/07/23 02:51:05;;;;;;;21.38;10.30;;;;;;;18.37;57.11;98495.48;129412;1096;114370;-81
2021/07/23 02:53:31;;;;;;;18.90;9.43;;;;;;;18.37;56.81;98488.08;129422;1095;114581;-81
2021/07/23 02:55:57;;;;;;;21.77;10.98;;;;;;;18.40;56.89;98495.55;129628;1096;22604;-81
2021/07/23 02:58:23;;;;;;;18.68;9.75;;;;;;;18.42;56.36;98497.91;129430;1096;114658;-81
2021/07/23 03:00:49;;;;;;;19.95;10.28;;;;;;;18.46;56.13;98495.26;129426;1097;114095;-81
2021/07/23 03:03:15;;;;;;;17.05;9.88;;;;;;;18.48;55.81;98487.52;129447;1096;114269;-81
2021/07/23 03:05:41;;;;;;;19.85;10.20;;;;;;;18.51;55.75;98495.78;129470;1095;113771;-81
2021/07/23 03:08:08;;;;;;;16.68;9.53;;;;;;;18.55;55.71;98482.19;129498;1096;114547;-81
2021/07/23 03:10:35;;;;;;;18.38;10.20;;;;;;;18.57;55.26;98486.14;129548;1097;22523;-81
2021/07/23 03:13:00;;;;;;;20.10;9.68;;;;;;;18.60;55.40;98490.89;129421;1097;114334;-81
2021/07/23 03:15:26;;;;;;;16.85;9.75;;;;;;;18.64;55.28;98485.51;129422;1097;114863;-81
2021/07/23 03:17:53;;;;;;;17.30;10.03;;;;;;;18.67;55.10;98483.98;129499;1095;114039;-81
2021/07/23 03:20:19;;;;;;;19.10;9.55;;;;;;;18.69;55.08;98487.94;129468;1096;114527;-81
2021/07/23 03:22:45;;;;;;;23.68;10.55;;;;;;;18.72;54.29;98489.20;129565;1096;22552;-82
2021/07/23 03:25:12;;;;;;;18.18;9.63;;;;;;;18.72;54.53;98476.34;129443;1096;114805;-82
2021/07/23 03:27:38;;;;;;;17.40;9.48;;;;;;;18.77;54.54;98483.44;129459;1097;114766;-82
2021/07/23 03:30:06;;;;;;;20.10;10.23;;;;;;;18.78;54.21;98483.06;129404;1096;114409;-82
2021/07/23 03:32:31;;;;;;;15.45;9.83;;;;;;;18.82;53.87;98488.59;129456;1096;114587;-82
2021/07/23 03:34:58;;;;;;;14.98;9.10;;;;;;;18.85;54.01;98488.66;129531;1096;22593;-82
2021/07/23 03:37:24;;;;;;;19.70;9.98;;;;;;;18.88;53.82;98485.22;129454;1096;113607;-82
2021/07/23 03:39:49;;;;;;;16.15;9.25;;;;;;;18.92;53.77;98481.77;129417;1096;114183;-82
2021/07/23 03:42:15;;;;;;;17.03;10.10;;;;;;;18.94;53.62;98488.43;129427;1096;114162;-83
2021/07/23 03:44:42;;;;;;;18.15;10.08;;;;;;;18.97;53.76;98487.71;129418;1096;113909;-82
2021/07/23 03:47:08;;;;;;;17.90;9.58;;;;;;;18.99;54.49;98484.64;129520;1095;115344;-81
2021/07/23 03:49:34;;;;;;;17.35;10.00;;;;;;;19.00;54.67;98478.02;129575;1096;22558;-82
2021/07/23 03:52:00;;;;;;;18.83;10.35;;;;;;;19.00;55.12;98488.94;129437;1096;114715;-82
2021/07/23 03:54:26;;;;;;;16.80;9.75;;;;;;;18.99;55.00;98479.97;129431;1096;114581;-82
2021/07/23 03:56:52;;;;;;;17.93;9.60;;;;;;;18.98;55.08;98483.85;129426;1096;114221;-82
2021/07/23 03:59:18;;;;;;;20.18;10.25;;;;;;;18.99;55.51;98484.64;129518;1095;114393;-82
2021/07/23 04:01:45;;;;;;;18.00;9.83;;;;;;;18.99;56.36;98490.09;129540;1096;22530;-82
2021/07/23 04:04:10;;;;;;;16.88;9.78;;;;;;;18.99;55.96;98485.42;129452;1096;113959;-82
2021/07/23 04:06:36;;;;;;;17.28;9.40;;;;;;;19.01;54.77;98479.59;129434;1095;114466;-82
2021/07/23 04:09:03;;;;;;;15.70;9.33;;;;;;;19.05;55.15;98474.98;129475;1096;114184;-82
2021/07/23 04:11:36;;;;;;;18.05;10.45;;;;;;;19.07;55.56;98481.67;129387;1096;114681;-82
2021/07/23 04:14:03;;;;;;;17.58;9.90;;;;;;;19.10;56.26;98483.68;129414;1096;114548;-82
2021/07/23 04:16:29;;;;;;;17.85;9.75;;;;;;;19.13;55.87;98490.34;129565;1096;23283;-82
2021/07/23 04:18:55;;;;;;;19.40;10.53;;;;;;;19.16;56.25;98488.83;129469;1097;114416;-82
2021/07/23 04:21:21;;;;;;;16.65;9.50;;;;;;;19.19;56.90;98490.84;129533;1096;114484;-82
2021/07/23 04:23:47;;;;;;;17.13;9.68;;;;;;;19.22;57.36;98487.39;129435;1095;113007;-82
2021/07/23 04:26:13;;;;;;;18.63;9.18;;;;;;;19.28;57.77;98491.38;129426;1096;114173;-82
2021/07/23 04:28:38;;;;;;;14.93;7.75;;;;;;;19.36;58.28;98498.53;129571;1096;22564;-82
2021/07/23 04:31:04;;;;;;;17.95;9.43;;;;;;;19.45;58.17;98498.28;129446;1096;114362;-81
2021/07/23 04:33:30;;;;;;;20.78;11.15;;;;;;;19.53;58.19;98494.52;129484;1096;114122;-81
2021/07/23 04:35:56;;;;;;;19.00;10.83;;;;;;;19.61;58.27;98493.50;129429;1096;114336;-81
2021/07/23 04:38:22;;;;;;;16.03;10.00;;;;;;;19.69;58.08;98500.69;129411;1096;114663;-81
2021/07/23 04:40:48;;;;;;;18.10;10.08;;;;;;;19.76;57.97;98494.52;129551;1096;23072;-81
2021/07/23 04:43:14;;;;;;;19.43;10.30;;;;;;;19.80;58.17;98496.15;129507;1096;114093;-81
2021/07/23 04:45:41;;;;;;;20.83;10.63;;;;;;;19.85;58.01;98495.07;129542;1096;114310;-81
2021/07/23 04:48:07;;;;;;;17.78;10.25;;;;;;;19.89;57.96;98493.17;129550;1096;114272;-82
2021/07/23 04:50:33;;;;;;;18.38;9.18;;;;;;;19.92;57.98;98489.69;129449;1096;114641;-82
2021/07/23 04:52:58;;;;;;;21.03;10.80;;;;;;;19.94;57.94;98483.87;129509;1096;23268;-82
2021/07/23 04:55:25;;;;;;;16.88;10.30;;;;;;;19.97;58.11;98483.14;129510;1096;22616;-82
2021/07/23 04:57:51;;;;;;;20.43;10.40;;;;;;;19.99;58.19;98487.06;129528;1096;114116;-82
2021/07/23 05:00:17;;;;;;;21.18;10.35;;;;;;;20.03;58.42;98492.58;129451;1096;114492;-82
2021/07/23 05:02:44;;;;;;;21.95;11.10;;;;;;;20.05;58.28;98485.59;129433;1096;114498;-82
2021/07/23 05:05:13;;;;;;;23.45;11.00;;;;;;;20.07;58.51;98491.47;129501;1095;114427;-82
2021/07/23 05:07:40;;;;;;;24.78;11.10;;;;;;;20.11;58.67;98486.05;129545;1096;22561;-82
2021/07/23 05:10:08;;;;;;;21.20;11.28;;;;;;;20.13;58.70;98486.48;129472;1096;114292;-82
2021/07/23 05:12:34;;;;;;;22.25;11.43;;;;;;;20.17;58.61;98487.32;129452;1096;114313;-81
2021/07/23 05:15:01;;;;;;;17.90;10.30;;;;;;;20.21;58.59;98482.69;129450;1096;114304;-81
2021/07/23 05:17:28;;;;;;;18.83;10.38;;;;;;;20.26;58.64;98484.30;129439;1095;114457;-85
2021/07/23 05:19:54;;;;;;;19.80;11.05;;;;;;;20.31;58.30;98479.29;129560;1095;22549;-85
2021/07/23 05:22:20;;;;;;;20.65;10.93;;;;;;;20.37;58.35;98478.98;129505;1096;113856;-84
2021/07/23 05:24:46;;;;;;;19.48;10.55;;;;;;;20.42;58.58;98487.63;129472;1097;114462;-85
2021/07/23 05:27:12;;;;;;;22.10;10.25;;;;;;;20.48;58.51;98474.44;129492;1096;114600;-84
2021/07/23 05:29:38;;;;;;;19.05;10.50;;;;;;;20.53;58.09;98476.86;129463;1095;115952;-85
2021/07/23 05:32:05;;;;;;;19.98;10.75;;;;;;;20.59;58.07;98478.09;129381;1096;114502;-84
2021/07/23 05:34:30;;;;;;;19.88;10.68;;;;;;;20.70;58.43;98481.74;129520;1096;22717;-84
2021/07/23 05:36:57;;;;;;;22.73;9.73;;;;;;;20.79;56.82;98484.20;129402;1097;114125;-85
2021/07/23 05:39:22;;;;;;;22.78;10.20;;;;;;;20.90;56.44;98481.56;129424;1096;114781;-85
2021/07/23 05:41:48;;;;;;;21.23;10.10;;;;;;;21.01;55.96;98482.47;129488;1096;114374;-84
2021/07/23 05:44:14;;;;;;;19.53;11.30;;;;;;;21.12;55.33;98485.31;129521;1095;114330;-85
2021/07/23 05:46:40;;;;;;;21.45;10.70;;;;;;;21.22;55.01;98490.91;129501;1096;22666;-84
2021/07/23 05:49:06;;;;;;;18.90;10.25;;;;;;;21.33;54.19;98491.79;129361;1096;114171;-85
2021/07/23 05:51:32;;;;;;;19.15;10.08;;;;;;;21.44;53.75;98496.59;129496;1095;114277;-85
2021/07/23 05:53:58;;;;;;;20.20;10.73;;;;;;;21.53;53.86;98486.88;129373;1095;114371;-85
2021/07/23 05:56:24;;;;;;;18.95;10.68;;;;;;;21.64;53.55;98492.44;129412;1096;114724;-84
2021/07/23 05:58:51;;;;;;;19.25;10.33;;;;;;;21.72;52.83;98494.06;129555;1096;22585;-87
2021/07/23 06:01:17;;;;;;;19.33;9.68;;;;;;;21.78;52.40;98492.56;129415;1095;114563;-87
2021/07/23 06:03:43;;;;;;;16.63;9.48;;;;;;;21.81;51.92;98489.06;129422;1097;114214;-87
2021/07/23 06:06:09;;;;;;;19.55;10.03;;;;;;;21.88;52.12;98482.82;129438;1096;114322;-87
2021/07/23 06:08:35;;;;;;;17.97;9.70;;;;;;;21.96;51.43;98491.88;129408;1096;114476;-87
2021/07/23 06:11:06;;;;;;;17.50;10.00;;;;;;;22.05;51.01;98489.61;129443;1097;114240;-85
2021/07/23 06:13:37;;;;;;;18.03;9.73;;;;;;;22.15;51.69;98493.59;129549;1096;22557;-86
2021/07/23 06:16:14;;;;;;;18.60;10.07;;;;;;;22.26;51.29;98492.48;129484;1096;114285;-88
2021/07/23 06:18:41;;;;;;;18.60;9.43;;;;;;;22.32;50.51;98495.64;129481;1096;114829;-87
2021/07/23 06:21:07;;;;;;;20.98;10.68;;;;;;;22.40;49.91;98490.97;129488;1096;114427;-87
2021/07/23 06:23:33;;;;;;;19.58;10.00;;;;;;;22.48;50.37;98498.09;129498;1096;114842;-87
2021/07/23 06:26:04;;;;;;;18.73;10.13;;;;;;;22.58;50.16;98494.59;129514;1096;114616;-87
2021/07/23 06:28:30;;;;;;;16.68;10.08;;;;;;;22.64;49.08;98497.77;129550;1096;22547;-87
2021/07/23 06:31:01;;;;;;;20.55;10.08;;;;;;;22.64;49.09;98501.29;129427;1095;114363;-88
2021/07/23 06:33:27;;;;;;;19.50;10.35;;;;;;;22.71;49.13;98493.05;129496;1096;114305;-87
2021/07/23 06:35:53;;;;;;;16.63;10.70;;;;;;;22.82;49.32;98501.33;129414;1095;114526;-87
2021/07/23 06:39:05;;;;;;;18.55;10.73;;;;;;;22.89;48.50;98501.36;129470;1096;114590;-93
2021/07/23 06:45:44;;;;;;;20.38;9.58;;;;;;;23.11;48.18;98504.98;129612;1095;114694;-84
2021/07/23 06:49:17;;;;;;;19.80;9.80;;;;;;;23.18;47.58;98504.19;129440;1096;114229;-83
2021/07/23 06:56:13;;;;;;;20.70;9.53;;;;;;;23.26;47.62;98511.27;129756;1096;114176;-83
2021/07/23 06:59:39;;;;;;;21.60;10.58;;;;;;;23.36;47.63;98490.48;129669;1096;114121;-85
2021/07/23 07:10:01;;;;;;;19.50;10.15;;;;;;;23.66;46.37;98503.88;129579;1096;114167;-84
2021/07/23 07:13:34;;;;;;;19.88;10.78;;;;;;;23.78;46.54;98500.73;129341;1096;114434;-82
2021/07/23 07:24:05;;;;;;;18.73;10.10;;;;;;;24.12;45.33;98503.02;129408;1096;113162;-83
2021/07/23 07:27:32;;;;;;;19.68;9.73;;;;;;;24.15;45.11;98496.73;129439;1095;114576;-83
2021/07/23 07:31:05;;;;;;;18.00;11.03;;;;;;;24.17;45.04;98503.41;129613;1095;113073;-83
2021/07/23 07:34:56;;;;;;;19.93;10.75;;;;;;;24.21;44.56;98506.16;129341;1096;114335;-83
2021/07/23 07:41:45;;;;;;;22.93;13.00;;;;;;;24.36;44.44;98499.41;129194;1096;114253;-85
2021/07/23 07:45:11;;;;;;;23.93;11.28;;;;;;;24.40;44.58;98499.42;129432;1097;114412;-85
2021/07/23 07:48:52;;;;;;;18.95;10.65;;;;;;;24.45;45.14;98499.03;129615;1097;114517;-85
2021/07/23 07:59:40;;;;;;;22.03;12.00;;;;;;;24.62;44.37;98500.14;129256;1097;22530;-84
2021/07/23 08:03:10;;;;;;;18.30;11.78;;;;;;;24.69;44.55;98497.36;129425;1096;114154;-84
2021/07/23 08:06:59;;;;;;;19.08;10.73;;;;;;;24.80;44.88;98489.02;129612;1095;114978;-84
2021/07/23 08:10:16;;;;;;;;;;;;;;;;;;;;;
2021/07/23 08:13:32;;;;;;;;;;;;;;;;;;;;;
2021/07/23 08:17:00;;;;;;;19.15;11.78;;;;;;;25.24;44.25;98495.90;129388;1097;114367;-85
2021/07/23 08:20:34;;;;;;;19.55;10.90;;;;;;;25.31;43.73;98495.83;129360;1097;114004;-84
2021/07/23 08:24:23;;;;;;;22.03;11.85;;;;;;;25.42;43.56;98493.78;129322;1096;114967;-84
2021/07/23 08:27:36;;;;;;;19.00;11.23;;;;;;;25.50;43.79;98497.27;129334;1095;114511;-84
2021/07/23 08:31:04;;;;;;;21.40;11.45;;;;;;;25.54;43.60;98496.04;129354;1096;114529;-84
2021/07/23 08:34:22;;;;;;;;;;;;;;;;;;;;;
2021/07/23 08:37:58;;;;;;;17.23;11.00;;;;;;;25.74;43.15;98490.75;129601;1096;113283;-84
2021/07/23 08:41:40;;;;;;;;;;;;;;;;;;;;;
2021/07/23 08:48:25;;;;;;;20.55;10.78;;;;;;;25.99;42.19;98493.31;129565;1096;114603;-84
2021/07/23 08:51:45;;;;;;;18.98;10.78;;;;;;;26.05;42.10;98491.66;129485;1096;114403;-83
2021/07/23 08:55:21;;;;;;;20.25;12.53;;;;;;;26.12;41.44;98485.30;129534;1096;114374;-84
2021/07/23 08:58:48;;;;;;;19.40;10.95;;;;;;;26.10;40.41;98487.70;129422;1096;114453;-83
2021/07/23 09:02:16;;;;;;;21.50;11.38;;;;;;;26.15;40.91;98484.48;129530;1095;113347;-84
2021/07/23 09:05:45;;;;;;;21.48;11.28;;;;;;;26.24;40.97;98487.52;129631;1100;22562;-83
2021/07/23 09:09:19;;;;;;;17.28;11.13;;;;;;;26.36;41.56;98483.45;129509;1096;114262;-83
2021/07/23 09:12:47;;;;;;;25.28;11.20;;;;;;;26.58;41.29;98481.25;129558;1097;114617;-84
2021/07/23 09:16:21;;;;;;;17.85;10.88;;;;;;;26.72;40.00;98475.52;129568;1095;114361;-84
2021/07/23 09:19:48;;;;;;;;;;;;;;;;;;;;;
2021/07/23 09:23:25;;;;;;;21.53;11.45;;;;;;;26.97;40.18;98488.23;129566;1096;114177;-84
2021/07/23 09:26:55;;;;;;;22.55;12.28;;;;;;;27.05;39.41;98487.71;129618;1096;114122;-84
2021/07/23 09:30:30;;;;;;;23.40;12.35;;;;;;;27.11;38.96;98486.06;129244;1100;114540;-83
2021/07/23 09:34:21;;;;;;;18.23;11.98;;;;;;;27.18;38.82;98474.13;129273;1095;114333;-83
2021/07/23 09:48:10;;;;;;;20.93;12.30;;;;;;;27.69;37.36;98472.11;128958;1096;114431;-83
2021/07/23 09:51:44;;;;;;;18.28;11.23;;;;;;;27.74;37.21;98462.56;129546;1099;114588;-83
2021/07/23 09:55:13;;;;;;;17.53;11.00;;;;;;;27.78;36.09;98460.52;129367;1096;114368;-83
2021/07/23 09:58:40;;;;;;;19.58;10.80;;;;;;;27.83;37.33;98446.99;129537;1096;114379;-83
2021/07/23 10:02:13;;;;;;;21.60;12.38;;;;;;;28.02;35.98;98453.77;129521;1095;114307;-83
2021/07/23 10:05:55;;;;;;;19.63;11.95;;;;;;;28.17;36.16;98451.48;129239;1096;114292;-83
2021/07/23 10:09:23;;;;;;;16.53;10.83;;;;;;;28.40;36.51;98447.89;129509;1097;114595;-83
2021/07/23 10:12:48;;;;;;;20.35;12.53;;;;;;;28.58;35.85;98444.75;129523;1096;113251;-82
2021/07/23 10:16:21;;;;;;;22.58;11.90;;;;;;;28.58;35.72;98445.53;129325;1096;114393;-82
2021/07/23 10:19:55;;;;;;;19.13;11.65;;;;;;;28.61;35.75;98430.83;129300;1096;114358;-83
2021/07/23 10:23:08;;;;;;;;;;;;;;;;;;;;;
2021/07/23 10:26:51;;;;;;;23.45;13.18;;;;;;;28.51;36.40;98442.13;129556;1096;114789;-84
2021/07/23 10:30:39;;;;;;;24.93;13.30;;;;;;;28.26;36.55;98442.63;129297;1096;114876;-83
2021/07/23 10:33:56;;;;;;;18.98;12.95;;;;;;;28.26;36.04;98439.86;129398;1096;114327;-82
2021/07/23 10:37:35;;;;;;;21.05;11.48;;;;;;;28.43;36.16;98422.11;129305;1096;114335;-83
2021/07/23 10:41:13;;;;;;;18.18;12.63;;;;;;;28.79;35.37;98421.33;129323;1096;114380;-83
2021/07/23 10:44:42;;;;;;;20.30;12.08;;;;;;;29.20;35.95;98415.25;129573;1096;114531;-84
2021/07/23 10:48:18;;;;;;;18.18;10.45;;;;;;;29.51;34.86;98421.18;129600;1095;114346;-84
2021/07/23 10:51:45;;;;;;;15.73;11.68;;;;;;;29.71;33.91;98417.53;129627;1094;114554;-84
2021/07/23 10:55:13;;;;;;;18.28;10.48;;;;;;;29.40;33.18;98420.70;129336;1096;114406;-85
2021/07/23 10:58:58;;;;;;;;;;;;;;;;;;;;;
2021/07/23 11:02:30;;;;;;;20.50;11.70;;;;;;;29.47;33.62;98398.30;129440;1097;114426;-84
2021/07/23 11:06:10;;;;;;;19.10;10.80;;;;;;;29.63;33.61;98399.52;128424;1100;114218;-84
2021/07/23 11:09:43;;;;;;;16.73;10.95;;;;;;;29.71;32.92;98406.44;129566;1096;114551;-85
2021/07/23 11:13:17;;;;;;;16.90;10.40;;;;;;;29.53;32.75;98398.56;129300;1097;114489;-83
2021/07/23 11:20:19;;;;;;;;;;;;;;;;;;;;;
2021/07/23 11:27:30;;;;;;;14.85;10.05;;;;;;;29.84;32.02;98383.08;129577;1095;114468;-84
2021/07/23 11:31:03;;;;;;;18.28;10.90;;;;;;;30.17;30.87;98391.30;129321;1096;114423;-84
2021/07/23 11:37:56;;;;;;;;;;;;;;;;;;;;;
2021/07/23 11:41:39;;;;;;;;;;;;;;;;;;;;;
2021/07/23 11:45:20;;;;;;;20.65;10.08;;;;;;;30.77;28.93;98371.27;129330;1096;112963;-84
2021/07/23 11:52:20;;;;;;;16.65;10.73;;;;;;;31.27;28.47;98378.76;129346;1096;114176;-84
2021/07/23 11:55:49;;;;;;;30.13;10.23;;;;;;;31.42;28.46;98372.75;129552;1100;114351;-84
2021/07/23 12:02:51;;;;;;;14.78;9.40;;;;;;;31.85;26.91;98366.48;128911;1096;114880;-83
2021/07/23 12:06:18;;;;;;;14.05;10.00;;;;;;;31.93;27.60;98353.84;129526;1096;114291;-84
2021/07/23 12:13:11;;;;;;;14.30;9.98;;;;;;;32.10;25.92;98353.64;129567;1100;114380;-82
2021/07/23 12:16:44;;;;;;;18.50;9.88;;;;;;;32.01;26.36;98351.58;129628;1096;114233;-82
2021/07/23 12:20:10;;;;;;;15.68;9.70;;;;;;;32.13;26.51;98350.72;129496;1097;114221;-83
2021/07/23 12:30:37;;;;;;;;;;;;;;;;;;;;;
2021/07/23 12:37:56;;;;;;;13.83;9.08;;;;;;;32.42;26.06;98339.30;129425;1096;114364;-83
2021/07/23 12:41:25;;;;;;;15.60;10.85;;;;;;;32.80;26.37;98342.98;129531;1096;114758;-83
2021/07/23 12:44:52;;;;;;;17.45;9.85;;;;;;;33.33;25.81;98337.23;129558;1096;114349;-82
2021/07/23 12:48:27;;;;;;;14.75;10.10;;;;;;;33.55;25.08;98339.89;129435;1096;114222;-85
2021/07/23 12:52:00;;;;;;;16.78;9.98;;;;;;;33.98;24.83;98332.42;129239;1096;114592;-82
2021/07/23 12:55:29;;;;;;;15.13;10.50;;;;;;;34.48;23.93;98342.05;129558;1094;114291;-82
2021/07/23 12:58:56;;;;;;;15.95;10.03;;;;;;;34.97;23.58;98338.09;129325;1096;115206;-83
2021/07/23 13:02:23;;;;;;;16.03;10.10;;;;;;;35.23;22.81;98341.23;129290;1098;114220;-83
2021/07/23 13:09:19;;;;;;;16.63;10.20;;;;;;;34.92;21.27;98331.13;129375;1095;114354;-82
2021/07/23 13:12:58;;;;;;;16.05;10.30;;;;;;;34.88;22.27;98341.73;129558;1096;114555;-83
2021/07/23 13:16:29;;;;;;;15.13;9.30;;;;;;;34.93;22.36;98335.47;129421;1096;114402;-84
2021/07/23 13:19:49;;;;;;;;;;;;;;;;;;;;;
2021/07/23 13:26:55;;;;;;;;;;;;;;;;;;;;;
2021/07/23 13:30:23;;;;;;;16.70;11.25;;;;;;;35.56;21.83;98320.77;129511;1095;114083;-84
2021/07/23 13:33:51;;;;;;;15.30;10.10;;;;;;;35.83;21.90;98328.91;129558;1096;114409;-83
2021/07/23 13:44:35;;;;;;;16.13;11.63;;;;;;;36.64;20.63;98307.34;129308;1100;113371;-83
2021/07/23 13:54:50;;;;;;;;;;;;;;;;;;;;;
2021/07/23 14:02:05;;;;;;;13.50;9.95;;;;;;;37.51;19.29;98307.45;129301;1096;114713;-84
2021/07/23 14:05:39;;;;;;;15.80;10.23;;;;;;;37.74;19.40;98314.85;129575;1096;114075;-84
2021/07/23 14:09:06;;;;;;;15.43;10.58;;;;;;;38.21;18.37;98314.78;129389;1095;114510;-83
2021/07/23 14:12:32;;;;;;;15.40;10.28;;;;;;;38.47;18.66;98307.06;129544;1096;114746;-84
2021/07/23 14:15:59;;;;;;;16.00;11.28;;;;;;;38.80;18.45;98308.59;129542;1096;114530;-83
2021/07/23 14:19:28;;;;;;;15.60;10.05;;;;;;;39.00;17.52;98314.06;129510;1096;114443;-83
2021/07/23 14:22:48;;;;;;;;;;;;;;;;;;;;;
2021/07/23 14:26:22;;;;;;;15.00;10.45;;;;;;;39.39;17.76;98309.88;129375;1100;114237;-84
2021/07/23 14:29:45;;;;;;;;;;;;;;;;;;;;;
2021/07/23 14:33:16;;;;;;;13.78;10.48;;;;;;;40.07;16.39;98300.27;129535;1098;114247;-82
2021/07/23 14:40:13;;;;;;;16.98;10.30;;;;;;;40.74;15.90;98307.92;129558;1096;114371;-82
2021/07/23 14:43:39;;;;;;;17.65;10.95;;;;;;;40.70;16.02;98308.19;129352;1096;114357;-85
2021/07/23 14:47:12;;;;;;;;;;;;;;;;;;;;;
2021/07/23 14:50:47;;;;;;;16.10;10.65;;;;;;;41.11;15.62;98287.02;129259;1097;22540;-84
2021/07/23 14:57:40;;;;;;;13.90;10.43;;;;;;;41.84;14.31;98292.30;129218;1096;113475;-83
2021/07/23 15:01:08;;;;;;;17.55;10.48;;;;;;;42.29;14.10;98295.56;129542;1096;114360;-83
2021/07/23 15:04:33;;;;;;;;;;;;;;;;;;;;;
2021/07/23 15:07:59;;;;;;;;;;;;;;;;;;;;;
2021/07/23 15:11:39;;;;;;;14.85;10.88;;;;;;;43.10;12.33;98286.47;129323;1095;115442;-84
2021/07/23 15:15:09;;;;;;;17.33;10.53;;;;;;;43.42;12.69;98291.45;129415;1096;114107;-84
2021/07/23 15:18:46;;;;;;;17.18;10.60;;;;;;;43.45;12.77;98290.38;129229;1095;114563;-84